createdAt,value
2018-07-27T00:00:44.101Z,57.48
2018-07-27T00:01:44.108Z,57.48
2018-07-27T00:02:44.109Z,57.48
2018-07-27T00:03:44.115Z,57.29
2018-07-27T00:04:44.120Z,57.48
2018-07-27T00:05:44.126Z,57.38
2018-07-27T00:06:44.129Z,57.48
2018-07-27T00:07:44.132Z,58.06
2018-07-27T00:08:44.139Z,58.15
2018-07-27T00:09:44.143Z,57.87
2018-07-27T00:10:44.143Z,57.77
2018-07-27T00:11:44.152Z,57.77
2018-07-27T00:12:44.166Z,57.93
2018-07-27T00:13:44.158Z,57.96
2018-07-27T00:14:44.161Z,58.03
2018-07-27T00:15:44.164Z,58.15
2018-07-27T00:16:44.169Z,58.12
2018-07-27T00:17:44.177Z,58.32
2018-07-27T00:18:44.177Z,58.12
2018-07-27T00:19:44.182Z,59.00
2018-07-27T00:20:44.185Z,58.80
2018-07-27T00:21:44.194Z,58.61
2018-07-27T00:22:44.196Z,58.90
2018-07-27T00:23:44.198Z,58.80
2018-07-27T00:24:44.202Z,58.70
2018-07-27T00:25:44.208Z,58.51
2018-07-27T00:26:44.210Z,58.80
2018-07-27T00:27:44.216Z,58.70
2018-07-27T00:28:44.221Z,59.38
2018-07-27T00:29:44.222Z,59.28
2018-07-27T00:30:44.227Z,59.09
2018-07-27T00:31:44.234Z,59.09
2018-07-27T00:32:44.239Z,59.19
2018-07-27T00:33:44.242Z,59.19
2018-07-27T00:34:44.242Z,59.67
2018-07-27T00:35:44.247Z,59.48
2018-07-27T00:36:44.252Z,59.19
2018-07-27T00:37:44.256Z,59.00
2018-07-27T00:38:44.263Z,59.48
2018-07-27T00:39:44.264Z,59.55
2018-07-27T00:40:44.279Z,59.28
2018-07-27T00:41:44.276Z,59.67
2018-07-27T00:42:44.279Z,59.67
2018-07-27T00:43:44.282Z,59.55
2018-07-27T00:44:44.286Z,59.55
2018-07-27T00:45:44.289Z,59.35
2018-07-27T00:46:44.295Z,59.45
2018-07-27T00:47:44.300Z,59.45
2018-07-27T00:48:44.307Z,59.93
2018-07-27T00:49:44.305Z,60.22
2018-07-27T00:50:44.313Z,59.83
2018-07-27T00:51:44.318Z,60.31
2018-07-27T00:52:44.319Z,60.31
2018-07-27T00:53:44.320Z,60.13
2018-07-27T00:54:44.324Z,60.03
2018-07-27T00:55:44.328Z,60.03
2018-07-27T00:56:44.334Z,60.41
2018-07-27T00:57:44.336Z,60.03
2018-07-27T00:58:44.341Z,60.13
2018-07-27T00:59:44.350Z,59.93
2018-07-27T01:00:44.358Z,60.31
2018-07-27T01:01:44.360Z,61.09
2018-07-27T01:02:44.355Z,60.80
2018-07-27T01:03:44.359Z,60.61
2018-07-27T01:04:44.366Z,60.80
2018-07-27T01:05:44.368Z,60.80
2018-07-27T01:06:44.372Z,60.71
2018-07-27T01:07:44.383Z,60.80
2018-07-27T01:08:44.380Z,60.80
2018-07-27T01:09:44.383Z,60.61
2018-07-27T01:10:44.388Z,60.61
2018-07-27T01:11:44.393Z,60.61
2018-07-27T01:12:44.397Z,60.71
2018-07-27T01:13:44.403Z,61.28
2018-07-27T01:14:44.406Z,60.61
2018-07-27T01:15:44.410Z,60.71
2018-07-27T01:16:44.422Z,60.80
2018-07-27T01:17:44.415Z,60.71
2018-07-27T01:18:44.418Z,61.09
2018-07-27T01:19:44.423Z,60.89
2018-07-27T01:20:44.427Z,60.89
2018-07-27T01:21:44.429Z,61.09
2018-07-27T01:22:44.433Z,61.19
2018-07-27T01:23:44.439Z,61.09
2018-07-27T01:24:44.445Z,61.06
2018-07-27T01:25:44.445Z,61.54
2018-07-27T01:26:44.450Z,61.16
2018-07-27T01:27:44.453Z,61.35
2018-07-27T01:28:44.456Z,61.16
2018-07-27T01:29:44.462Z,61.44
2018-07-27T01:30:44.465Z,61.35
2018-07-27T01:31:44.468Z,61.16
2018-07-27T01:32:44.472Z,61.74
2018-07-27T01:33:44.476Z,61.25
2018-07-27T01:34:44.486Z,61.06
2018-07-27T01:35:44.485Z,61.83
2018-07-27T01:36:44.500Z,61.93
2018-07-27T01:37:44.489Z,62.02
2018-07-27T01:38:44.498Z,61.93
2018-07-27T01:39:44.498Z,61.83
2018-07-27T01:40:44.503Z,62.02
2018-07-27T01:41:44.508Z,61.93
2018-07-27T01:42:44.513Z,61.93
2018-07-27T01:43:44.514Z,61.44
2018-07-27T01:44:44.517Z,61.64
2018-07-27T01:45:44.523Z,61.93
2018-07-27T01:46:44.523Z,61.44
2018-07-27T01:47:44.531Z,61.74
2018-07-27T01:48:44.532Z,61.64
2018-07-27T01:49:44.535Z,61.83
2018-07-27T01:50:44.539Z,61.93
2018-07-27T01:51:44.546Z,62.51
2018-07-27T01:52:44.547Z,62.60
2018-07-27T01:53:44.554Z,62.79
2018-07-27T01:54:44.555Z,62.70
2018-07-27T01:55:44.557Z,62.28
2018-07-27T01:56:44.571Z,62.31
2018-07-27T01:57:44.573Z,62.70
2018-07-27T01:58:44.569Z,62.31
2018-07-27T01:59:44.574Z,63.24
2018-07-27T02:00:44.580Z,62.99
2018-07-27T02:01:44.579Z,62.99
2018-07-27T02:02:44.587Z,62.76
2018-07-27T02:03:44.587Z,62.66
2018-07-27T02:04:44.591Z,62.70
2018-07-27T02:05:44.596Z,62.89
2018-07-27T02:06:44.598Z,63.24
2018-07-27T02:07:44.601Z,63.15
2018-07-27T02:08:44.606Z,63.06
2018-07-27T02:09:44.611Z,62.96
2018-07-27T02:10:44.618Z,63.15
2018-07-27T02:11:44.618Z,62.96
2018-07-27T02:12:44.628Z,63.34
2018-07-27T02:13:44.624Z,63.06
2018-07-27T02:14:44.630Z,63.44
2018-07-27T02:15:44.631Z,63.15
2018-07-27T02:16:44.651Z,62.96
2018-07-27T02:17:44.641Z,62.86
2018-07-27T02:18:44.645Z,63.44
2018-07-27T02:19:44.646Z,63.44
2018-07-27T02:20:44.649Z,63.73
2018-07-27T02:21:44.660Z,63.54
2018-07-27T02:22:44.657Z,64.40
2018-07-27T02:23:44.662Z,64.02
2018-07-27T02:24:44.674Z,63.63
2018-07-27T02:25:44.674Z,63.92
2018-07-27T02:26:44.688Z,63.82
2018-07-27T02:27:44.691Z,63.92
2018-07-27T02:28:44.678Z,64.31
2018-07-27T02:29:44.685Z,64.50
2018-07-27T02:30:44.685Z,64.37
2018-07-27T02:31:44.715Z,64.47
2018-07-27T02:32:44.695Z,64.56
2018-07-27T02:33:44.705Z,64.66
2018-07-27T02:34:44.698Z,64.47
2018-07-27T02:35:44.705Z,64.76
2018-07-27T02:36:44.705Z,65.33
2018-07-27T02:37:44.709Z,64.95
2018-07-27T02:38:44.712Z,65.14
2018-07-27T02:39:44.715Z,64.76
2018-07-27T02:40:44.720Z,65.14
2018-07-27T02:41:44.725Z,64.76
2018-07-27T02:42:44.729Z,65.05
2018-07-27T02:43:44.744Z,64.86
2018-07-27T02:44:44.733Z,65.24
2018-07-27T02:45:44.738Z,65.14
2018-07-27T02:46:44.739Z,65.14
2018-07-27T02:47:44.743Z,65.33
2018-07-27T02:48:44.761Z,65.14
2018-07-27T02:49:44.750Z,65.63
2018-07-27T02:50:44.757Z,65.43
2018-07-27T02:51:44.758Z,65.53
2018-07-27T02:52:44.760Z,65.91
2018-07-27T02:53:44.762Z,65.81
2018-07-27T02:54:44.769Z,65.72
2018-07-27T02:55:44.774Z,65.63
2018-07-27T02:56:44.781Z,65.63
2018-07-27T02:57:44.777Z,65.20
2018-07-27T02:58:44.779Z,65.30
2018-07-27T02:59:44.788Z,65.50
2018-07-27T03:00:44.836Z,65.53
2018-07-27T03:01:44.795Z,65.98
2018-07-27T03:02:44.798Z,65.98
2018-07-27T03:03:44.806Z,65.78
2018-07-27T03:04:44.800Z,66.17
2018-07-27T03:05:44.805Z,66.07
2018-07-27T03:06:44.807Z,66.75
2018-07-27T03:07:44.810Z,66.46
2018-07-27T03:08:44.813Z,66.27
2018-07-27T03:09:44.910Z,67.03
2018-07-27T03:10:44.819Z,66.46
2018-07-27T03:11:44.824Z,66.46
2018-07-27T03:12:44.826Z,66.75
2018-07-27T03:13:44.835Z,66.36
2018-07-27T03:14:44.916Z,66.75
2018-07-27T03:15:44.845Z,66.46
2018-07-27T03:16:44.844Z,66.55
2018-07-27T03:17:44.841Z,66.17
2018-07-27T03:18:44.847Z,66.36
2018-07-27T03:19:44.851Z,66.46
2018-07-27T03:20:44.852Z,66.46
2018-07-27T03:21:44.854Z,66.94
2018-07-27T03:22:44.859Z,66.55
2018-07-27T03:23:44.875Z,66.85
2018-07-27T03:24:44.864Z,67.33
2018-07-27T03:25:44.874Z,67.23
2018-07-27T03:26:44.869Z,67.33
2018-07-27T03:27:44.874Z,67.23
2018-07-27T03:28:44.877Z,67.13
2018-07-27T03:29:44.880Z,67.23
2018-07-27T03:30:44.883Z,67.03
2018-07-27T03:31:44.892Z,67.33
2018-07-27T03:32:44.889Z,67.23
2018-07-27T03:33:44.892Z,67.33
2018-07-27T03:34:44.895Z,67.42
2018-07-27T03:35:44.898Z,67.42
2018-07-27T03:36:44.902Z,67.52
2018-07-27T03:37:44.908Z,67.81
2018-07-27T03:38:44.911Z,68.00
2018-07-27T03:39:44.910Z,67.71
2018-07-27T03:40:44.932Z,67.71
2018-07-27T03:41:44.921Z,67.52
2018-07-27T03:42:44.920Z,67.81
2018-07-27T03:43:44.946Z,67.81
2018-07-27T03:44:44.927Z,67.90
2018-07-27T03:45:44.929Z,67.61
2018-07-27T03:46:44.939Z,67.61
2018-07-27T03:47:44.937Z,67.61
2018-07-27T03:48:44.943Z,67.42
2018-07-27T03:49:44.943Z,67.61
2018-07-27T03:50:44.945Z,67.71
2018-07-27T03:51:44.951Z,67.33
2018-07-27T03:52:44.952Z,67.33
2018-07-27T03:53:44.957Z,67.81
2018-07-27T03:54:44.958Z,67.52
2018-07-27T03:55:44.961Z,67.42
2018-07-27T03:56:44.967Z,67.71
2018-07-27T03:57:44.965Z,67.71
2018-07-27T03:58:44.972Z,67.81
2018-07-27T03:59:44.977Z,67.33
2018-07-27T04:00:44.977Z,67.90
2018-07-27T04:01:44.978Z,67.97
2018-07-27T04:02:44.981Z,68.10
2018-07-27T04:03:44.987Z,68.06
2018-07-27T04:04:44.991Z,68.06
2018-07-27T04:05:44.996Z,67.97
2018-07-27T04:06:45.000Z,68.64
2018-07-27T04:07:44.999Z,68.35
2018-07-27T04:08:45.003Z,68.35
2018-07-27T04:09:45.003Z,68.35
2018-07-27T04:10:45.006Z,68.16
2018-07-27T04:11:45.011Z,68.06
2018-07-27T04:12:45.013Z,68.38
2018-07-27T04:13:45.016Z,68.06
2018-07-27T04:14:45.017Z,68.35
2018-07-27T04:15:45.030Z,68.06
2018-07-27T04:16:45.026Z,68.16
2018-07-27T04:17:45.027Z,68.26
2018-07-27T04:18:45.032Z,68.06
2018-07-27T04:19:45.033Z,68.35
2018-07-27T04:20:45.037Z,68.35
2018-07-27T04:21:45.044Z,68.16
2018-07-27T04:22:45.047Z,68.44
2018-07-27T04:23:45.056Z,68.58
2018-07-27T04:24:45.048Z,68.74
2018-07-27T04:25:45.056Z,68.26
2018-07-27T04:26:45.054Z,68.74
2018-07-27T04:27:45.059Z,68.16
2018-07-27T04:28:45.060Z,68.00
2018-07-27T04:29:45.064Z,67.81
2018-07-27T04:30:45.070Z,68.19
2018-07-27T04:31:45.068Z,68.00
2018-07-27T04:32:45.071Z,68.00
2018-07-27T04:33:45.074Z,68.00
2018-07-27T04:34:45.077Z,68.10
2018-07-27T04:35:45.129Z,68.19
2018-07-27T04:36:45.085Z,68.10
2018-07-27T04:37:45.091Z,67.42
2018-07-27T04:38:45.090Z,67.71
2018-07-27T04:39:45.094Z,67.52
2018-07-27T04:40:45.095Z,67.52
2018-07-27T04:41:45.100Z,67.81
2018-07-27T04:42:45.101Z,67.52
2018-07-27T04:43:45.106Z,67.42
2018-07-27T04:44:45.111Z,67.42
2018-07-27T04:45:45.110Z,67.42
2018-07-27T04:46:45.114Z,67.61
2018-07-27T04:47:45.117Z,67.42
2018-07-27T04:48:45.121Z,67.74
2018-07-27T04:49:45.124Z,67.07
2018-07-27T04:50:45.132Z,67.36
2018-07-27T04:51:45.129Z,67.74
2018-07-27T04:52:45.132Z,66.78
2018-07-27T04:53:45.137Z,66.59
2018-07-27T04:54:45.151Z,66.78
2018-07-27T04:55:45.142Z,66.33
2018-07-27T04:56:45.214Z,66.72
2018-07-27T04:57:45.149Z,66.33
2018-07-27T04:58:45.160Z,65.75
2018-07-27T04:59:45.156Z,65.27
2018-07-27T05:00:45.162Z,65.66
2018-07-27T05:01:45.161Z,65.66
2018-07-27T05:02:45.164Z,65.95
2018-07-27T05:03:45.171Z,65.01
2018-07-27T05:04:45.234Z,65.20
2018-07-27T05:05:45.175Z,64.92
2018-07-27T05:06:45.179Z,65.01
2018-07-27T05:07:45.186Z,65.01
2018-07-27T05:08:45.188Z,65.30
2018-07-27T05:09:45.188Z,64.43
2018-07-27T05:10:45.194Z,64.08
2018-07-27T05:11:45.234Z,63.21
2018-07-27T05:12:45.200Z,61.89
2018-07-27T05:13:45.202Z,61.25
2018-07-27T05:14:45.206Z,61.18
2018-07-27T05:15:45.210Z,61.08
2018-07-27T05:16:45.214Z,61.08
2018-07-27T05:17:45.217Z,60.76
2018-07-27T05:18:45.227Z,61.05
2018-07-27T05:19:45.227Z,61.54
2018-07-27T05:20:45.229Z,61.54
2018-07-27T05:21:45.235Z,61.25
2018-07-27T05:22:45.236Z,61.34
2018-07-27T05:23:45.241Z,61.37
2018-07-27T05:24:45.246Z,61.18
2018-07-27T05:25:45.250Z,60.79
2018-07-27T05:26:45.252Z,60.99
2018-07-27T05:27:45.256Z,60.14
2018-07-27T05:28:45.260Z,59.47
2018-07-27T05:29:45.272Z,59.01
2018-07-27T05:30:45.277Z,58.27
2018-07-27T05:31:45.277Z,57.30
2018-07-27T05:32:45.278Z,57.30
2018-07-27T05:33:45.285Z,56.92
2018-07-27T05:34:45.317Z,57.46
2018-07-27T05:35:45.290Z,58.14
2018-07-27T05:36:45.295Z,59.08
2018-07-27T05:37:45.299Z,59.28
2018-07-27T05:38:45.306Z,60.60
2018-07-27T05:39:45.310Z,60.02
2018-07-27T05:40:45.314Z,60.79
2018-07-27T05:41:45.318Z,61.37
2018-07-27T05:42:45.323Z,60.99
2018-07-27T05:43:45.329Z,60.05
2018-07-27T05:44:45.333Z,59.95
2018-07-27T05:45:45.336Z,58.82
2018-07-27T05:46:45.345Z,57.50
2018-07-27T05:47:45.350Z,56.92
2018-07-27T05:48:45.403Z,56.92
2018-07-27T05:49:45.356Z,57.11
2018-07-27T05:50:45.359Z,57.01
2018-07-27T05:51:45.363Z,57.66
2018-07-27T05:52:45.401Z,57.56
2018-07-27T05:53:45.376Z,58.44
2018-07-27T05:54:45.379Z,57.95
2018-07-27T05:55:45.383Z,57.76
2018-07-27T05:56:45.390Z,58.14
2018-07-27T05:57:45.391Z,58.44
2018-07-27T05:58:45.396Z,58.24
2018-07-27T05:59:45.402Z,57.28
2018-07-27T06:00:45.405Z,56.72
2018-07-27T06:01:45.410Z,55.88
2018-07-27T06:02:45.439Z,55.90
2018-07-27T06:03:45.420Z,55.32
2018-07-27T06:04:45.474Z,54.58
2018-07-27T06:05:45.427Z,53.83
2018-07-27T06:06:45.442Z,52.86
2018-07-27T06:07:45.447Z,52.88
2018-07-27T06:08:45.483Z,51.81
2018-07-27T06:09:45.448Z,52.98
2018-07-27T06:10:45.769Z,52.95
2018-07-27T06:11:45.578Z,52.86
2018-07-27T06:12:45.541Z,53.83
2018-07-27T06:13:45.505Z,53.89
2018-07-27T06:14:45.515Z,54.09
2018-07-27T06:15:45.540Z,54.77
2018-07-27T06:16:45.608Z,54.58
2018-07-27T06:17:45.497Z,54.55
2018-07-27T06:18:45.493Z,54.67
2018-07-27T06:19:45.501Z,54.64
2018-07-27T06:20:45.510Z,55.71
2018-07-27T06:21:45.511Z,55.04
2018-07-27T06:22:45.515Z,54.45
2018-07-27T06:23:45.576Z,54.45
2018-07-27T06:24:45.525Z,54.55
2018-07-27T06:25:45.528Z,54.26
2018-07-27T06:26:45.533Z,55.42
2018-07-27T06:27:45.547Z,55.13
2018-07-27T06:28:45.566Z,55.52
2018-07-27T06:29:45.549Z,55.42
2018-07-27T06:30:45.556Z,55.22
2018-07-27T06:31:45.565Z,54.55
2018-07-27T06:32:45.563Z,55.32
2018-07-27T06:33:45.567Z,55.22
2018-07-27T06:34:45.572Z,56.00
2018-07-27T06:35:45.579Z,55.58
2018-07-27T06:36:45.585Z,55.62
2018-07-27T06:37:45.617Z,55.42
2018-07-27T06:38:45.596Z,55.90
2018-07-27T06:39:45.597Z,55.42
2018-07-27T06:40:45.606Z,55.52
2018-07-27T06:41:45.606Z,55.81
2018-07-27T06:42:45.613Z,55.04
2018-07-27T06:43:45.616Z,55.22
2018-07-27T06:44:45.622Z,55.22
2018-07-27T06:45:45.626Z,55.22
2018-07-27T06:46:45.633Z,55.62
2018-07-27T06:47:45.647Z,55.42
2018-07-27T06:48:45.642Z,55.22
2018-07-27T06:49:45.649Z,55.68
2018-07-27T06:50:45.652Z,55.68
2018-07-27T06:51:45.656Z,55.49
2018-07-27T06:52:46.415Z,55.49
2018-07-27T06:53:45.670Z,55.40
2018-07-27T06:54:45.703Z,55.20
2018-07-27T06:55:45.688Z,55.58
2018-07-27T06:56:45.682Z,55.30
2018-07-27T06:57:45.687Z,55.68
2018-07-27T06:58:45.697Z,55.98
2018-07-27T06:59:45.695Z,55.58
2018-07-27T07:00:45.715Z,55.40
2018-07-27T07:01:45.711Z,55.49
2018-07-27T07:02:45.715Z,55.40
2018-07-27T07:03:45.751Z,55.68
2018-07-27T07:04:45.746Z,56.07
2018-07-27T07:05:45.723Z,55.78
2018-07-27T07:06:45.728Z,55.40
2018-07-27T07:07:45.734Z,55.78
2018-07-27T07:08:45.739Z,55.58
2018-07-27T07:09:45.741Z,56.07
2018-07-27T07:10:45.747Z,55.68
2018-07-27T07:11:45.757Z,55.88
2018-07-27T07:12:45.757Z,55.88
2018-07-27T07:13:45.762Z,55.78
2018-07-27T07:14:45.771Z,56.16
2018-07-27T07:15:45.772Z,55.68
2018-07-27T07:16:45.787Z,56.36
2018-07-27T07:17:45.779Z,56.16
2018-07-27T07:18:45.785Z,56.07
2018-07-27T07:19:45.791Z,55.98
2018-07-27T07:20:45.794Z,55.98
2018-07-27T07:21:45.798Z,56.16
2018-07-27T07:22:45.814Z,55.88
2018-07-27T07:23:45.809Z,56.00
2018-07-27T07:24:45.813Z,56.29
2018-07-27T07:25:45.939Z,55.62
2018-07-27T07:26:45.822Z,55.62
2018-07-27T07:27:45.834Z,55.32
2018-07-27T07:28:45.831Z,55.32
2018-07-27T07:29:45.836Z,55.52
2018-07-27T07:30:45.843Z,55.81
2018-07-27T07:31:45.847Z,55.62
2018-07-27T07:32:45.854Z,56.20
2018-07-27T07:33:45.946Z,56.20
2018-07-27T07:34:45.881Z,56.10
2018-07-27T07:35:45.867Z,55.62
2018-07-27T07:36:45.871Z,56.20
2018-07-27T07:37:45.874Z,56.10
2018-07-27T07:38:45.876Z,56.10
2018-07-27T07:39:45.882Z,55.81
2018-07-27T07:40:45.887Z,55.93
2018-07-27T07:41:45.903Z,55.93
2018-07-27T07:42:45.895Z,55.54
2018-07-27T07:43:45.918Z,55.64
2018-07-27T07:44:45.905Z,55.54
2018-07-27T07:45:45.910Z,55.44
2018-07-27T07:46:45.921Z,55.44
2018-07-27T07:47:45.920Z,55.16
2018-07-27T07:48:45.927Z,55.54
2018-07-27T07:49:45.929Z,55.35
2018-07-27T07:50:45.938Z,55.35
2018-07-27T07:51:45.939Z,55.26
2018-07-27T07:52:45.944Z,55.26
2018-07-27T07:53:45.954Z,55.44
2018-07-27T07:54:45.954Z,55.35
2018-07-27T07:55:45.957Z,55.28
2018-07-27T07:56:45.966Z,54.77
2018-07-27T07:57:45.967Z,55.57
2018-07-27T07:58:45.973Z,54.90
2018-07-27T07:59:45.977Z,55.08
2018-07-27T08:00:45.985Z,55.08
2018-07-27T08:01:45.986Z,54.70
2018-07-27T08:02:45.991Z,54.41
2018-07-27T08:03:45.996Z,54.50
2018-07-27T08:04:46.001Z,54.80
2018-07-27T08:05:46.006Z,54.50
2018-07-27T08:06:46.009Z,54.11
2018-07-27T08:07:46.013Z,54.14
2018-07-27T08:08:46.019Z,53.85
2018-07-27T08:09:46.024Z,54.05
2018-07-27T08:10:46.035Z,54.34
2018-07-27T08:11:46.038Z,53.85
2018-07-27T08:12:46.039Z,54.24
2018-07-27T08:13:46.043Z,54.27
2018-07-27T08:14:46.049Z,54.17
2018-07-27T08:15:46.063Z,54.17
2018-07-27T08:16:46.061Z,53.95
2018-07-27T08:17:46.067Z,54.36
2018-07-27T08:18:46.067Z,54.17
2018-07-27T08:19:46.073Z,54.17
2018-07-27T08:20:46.080Z,53.59
2018-07-27T08:21:46.083Z,53.49
2018-07-27T08:22:46.119Z,52.91
2018-07-27T08:23:46.093Z,53.88
2018-07-27T08:24:46.098Z,53.78
2018-07-27T08:25:46.106Z,53.42
2018-07-27T08:26:46.107Z,53.78
2018-07-27T08:27:46.113Z,53.49
2018-07-27T08:28:46.117Z,53.71
2018-07-27T08:29:46.121Z,53.13
2018-07-27T08:30:46.128Z,52.84
2018-07-27T08:31:46.133Z,52.94
2018-07-27T08:32:46.142Z,53.03
2018-07-27T08:33:46.148Z,52.74
2018-07-27T08:34:46.149Z,52.35
2018-07-27T08:35:46.155Z,52.19
2018-07-27T08:36:46.159Z,51.99
2018-07-27T08:37:46.185Z,52.37
2018-07-27T08:38:46.169Z,52.19
2018-07-27T08:39:46.228Z,51.60
2018-07-27T08:40:46.186Z,50.85
2018-07-27T08:41:46.183Z,51.04
2018-07-27T08:42:46.190Z,51.04
2018-07-27T08:43:46.195Z,50.07
2018-07-27T08:44:46.205Z,50.16
2018-07-27T08:45:46.209Z,50.16
2018-07-27T08:46:46.214Z,49.99
2018-07-27T08:47:46.217Z,50.38
2018-07-27T08:48:46.223Z,50.19
2018-07-27T08:49:46.225Z,49.22
2018-07-27T08:50:46.287Z,47.80
2018-07-27T08:51:46.241Z,45.54
2018-07-27T08:52:46.271Z,42.58
2018-07-27T08:53:46.256Z,41.17
2018-07-27T08:54:46.256Z,39.17
2018-07-27T08:55:46.260Z,37.54
2018-07-27T08:56:46.268Z,36.01
2018-07-27T08:57:46.273Z,35.06
2018-07-27T08:58:46.283Z,34.39
2018-07-27T08:59:46.287Z,33.53
2018-07-27T09:00:46.293Z,33.05
2018-07-27T09:01:46.301Z,32.28
2018-07-27T09:02:46.316Z,32.26
2018-07-27T09:03:46.341Z,32.46
2018-07-27T09:04:46.350Z,32.08
2018-07-27T09:05:46.886Z,32.29
2018-07-27T09:06:46.339Z,31.11
2018-07-27T09:07:46.347Z,30.24
2018-07-27T09:08:46.357Z,29.37
2018-07-27T09:09:46.365Z,29.37
2018-07-27T09:10:46.373Z,28.78
2018-07-27T09:11:46.384Z,27.81
2018-07-27T09:12:46.393Z,27.62
2018-07-27T09:13:46.400Z,27.13
2018-07-27T09:14:46.411Z,26.76
2018-07-27T09:15:46.423Z,25.60
2018-07-27T09:16:46.429Z,25.51
2018-07-27T09:17:46.439Z,25.51
2018-07-27T09:18:46.449Z,25.42
2018-07-27T09:19:46.459Z,25.13
2018-07-27T09:20:46.470Z,24.33
2018-07-27T09:21:46.479Z,24.45
2018-07-27T09:22:46.489Z,24.35
2018-07-27T09:23:46.500Z,24.74
2018-07-27T09:24:46.685Z,23.86
2018-07-27T09:25:46.520Z,23.38
2018-07-27T09:26:46.535Z,23.88
2018-07-27T09:27:46.542Z,22.99
2018-07-27T09:28:46.554Z,23.29
2018-07-27T09:29:46.568Z,23.01
2018-07-27T09:30:46.580Z,22.61
2018-07-27T09:31:46.588Z,22.33
2018-07-27T09:32:46.601Z,23.10
2018-07-27T09:33:46.613Z,24.24
2018-07-27T09:34:46.630Z,25.59
2018-07-27T09:35:46.637Z,26.65
2018-07-27T09:36:46.648Z,27.14
2018-07-27T09:37:46.658Z,26.46
2018-07-27T09:38:46.668Z,25.32
2018-07-27T09:39:46.682Z,24.35
2018-07-27T09:40:46.701Z,23.21
2018-07-27T09:41:46.701Z,21.82
2018-07-27T09:42:46.719Z,22.59
2018-07-27T09:43:46.726Z,23.08
2018-07-27T09:44:46.735Z,24.13
2018-07-27T09:45:46.751Z,25.28
2018-07-27T09:46:46.760Z,26.43
2018-07-27T09:47:46.771Z,27.40
2018-07-27T09:48:46.791Z,28.36
2018-07-27T09:49:46.796Z,29.23
2018-07-27T09:50:46.804Z,30.68
2018-07-27T09:51:46.822Z,30.95
2018-07-27T09:52:46.880Z,31.41
2018-07-27T09:53:46.867Z,32.46
2018-07-27T09:54:46.846Z,33.15
2018-07-27T09:55:46.857Z,32.94
2018-07-27T09:56:46.865Z,33.07
2018-07-27T09:57:46.952Z,31.71
2018-07-27T09:58:46.884Z,32.50
2018-07-27T09:59:46.894Z,32.30
2018-07-27T10:00:46.905Z,32.38
2018-07-27T10:01:46.929Z,32.09
2018-07-27T10:02:46.922Z,32.17
2018-07-27T10:03:46.930Z,32.38
2018-07-27T10:04:46.957Z,32.86
2018-07-27T10:05:46.958Z,32.30
2018-07-27T10:06:46.959Z,31.15
2018-07-27T10:07:46.965Z,30.58
2018-07-27T10:08:46.986Z,30.58
2018-07-27T10:09:46.982Z,29.89
2018-07-27T10:10:46.992Z,30.47
2018-07-27T10:11:47.003Z,31.33
2018-07-27T10:12:47.023Z,30.71
2018-07-27T10:13:47.037Z,32.66
2018-07-27T10:14:47.043Z,33.51
2018-07-27T10:15:47.037Z,34.47
2018-07-27T10:16:47.045Z,35.16
2018-07-27T10:17:47.052Z,36.02
2018-07-27T10:18:47.061Z,36.12
2018-07-27T10:19:47.069Z,37.08
2018-07-27T10:20:47.084Z,37.26
2018-07-27T10:21:47.094Z,37.06
2018-07-27T10:22:47.097Z,37.65
2018-07-27T10:23:47.101Z,37.26
2018-07-27T10:24:47.112Z,37.83
2018-07-27T10:25:47.120Z,38.02
2018-07-27T10:26:47.126Z,39.10
2018-07-27T10:27:47.132Z,38.90
2018-07-27T10:28:47.141Z,38.71
2018-07-27T10:29:47.147Z,38.71
2018-07-27T10:30:47.156Z,38.81
2018-07-27T10:31:47.162Z,38.90
2018-07-27T10:32:47.173Z,39.20
2018-07-27T10:33:47.192Z,37.75
2018-07-27T10:34:47.190Z,37.75
2018-07-27T10:35:47.193Z,35.86
2018-07-27T10:36:47.217Z,34.64
2018-07-27T10:37:47.208Z,34.03
2018-07-27T10:38:47.260Z,34.52
2018-07-27T10:39:47.222Z,34.52
2018-07-27T10:40:47.230Z,33.56
2018-07-27T10:41:47.238Z,31.82
2018-07-27T10:42:47.247Z,30.98
2018-07-27T10:43:47.256Z,30.22
2018-07-27T10:44:47.274Z,29.65
2018-07-27T10:45:47.273Z,30.02
2018-07-27T10:46:47.283Z,29.74
2018-07-27T10:47:47.323Z,29.62
2018-07-27T10:48:47.298Z,30.87
2018-07-27T10:49:47.312Z,32.04
2018-07-27T10:50:47.315Z,32.30
2018-07-27T10:51:47.326Z,33.17
2018-07-27T10:52:47.405Z,33.34
2018-07-27T10:53:47.346Z,34.30
2018-07-27T10:54:47.351Z,35.16
2018-07-27T10:55:47.360Z,35.34
2018-07-27T10:56:47.369Z,35.53
2018-07-27T10:57:47.389Z,34.30
2018-07-27T10:58:47.395Z,33.33
2018-07-27T10:59:47.396Z,33.43
2018-07-27T11:00:47.408Z,33.12
2018-07-27T11:01:47.410Z,33.31
2018-07-27T11:02:47.422Z,33.31
2018-07-27T11:03:47.430Z,33.41
2018-07-27T11:04:47.439Z,33.61
2018-07-27T11:05:47.448Z,33.51
2018-07-27T11:06:47.466Z,33.80
2018-07-27T11:07:47.460Z,34.00
2018-07-27T11:08:47.475Z,34.30
2018-07-27T11:09:47.541Z,34.28
2018-07-27T11:10:48.546Z,34.38
2018-07-27T11:11:47.492Z,34.84
2018-07-27T11:12:47.501Z,35.14
2018-07-27T11:13:47.523Z,35.16
2018-07-27T11:14:47.516Z,35.25
2018-07-27T11:15:47.524Z,35.45
2018-07-27T11:16:47.537Z,35.45
2018-07-27T11:17:47.583Z,35.35
2018-07-27T11:18:47.552Z,35.45
2018-07-27T11:19:47.563Z,35.45
2018-07-27T11:20:47.567Z,35.55
2018-07-27T11:21:47.573Z,35.85
2018-07-27T11:22:47.579Z,35.75
2018-07-27T11:23:47.588Z,35.94
2018-07-27T11:24:47.599Z,35.85
2018-07-27T11:25:47.605Z,36.41
2018-07-27T11:26:47.611Z,36.33
2018-07-27T11:27:47.620Z,36.04
2018-07-27T11:28:47.626Z,36.04
2018-07-27T11:29:47.633Z,35.35
2018-07-27T11:30:47.643Z,35.55
2018-07-27T11:31:47.652Z,35.45
2018-07-27T11:32:47.659Z,34.78
2018-07-27T11:33:47.665Z,34.69
2018-07-27T11:34:47.673Z,34.78
2018-07-27T11:35:47.682Z,35.25
2018-07-27T11:36:47.690Z,35.35
2018-07-27T11:37:47.998Z,36.24
2018-07-27T11:38:47.720Z,35.75
2018-07-27T11:39:47.717Z,35.93
2018-07-27T11:40:47.726Z,36.10
2018-07-27T11:41:47.753Z,36.49
2018-07-27T11:42:47.741Z,37.18
2018-07-27T11:43:47.748Z,37.27
2018-07-27T11:44:47.799Z,37.26
2018-07-27T11:45:47.765Z,37.75
2018-07-27T11:46:47.765Z,37.65
2018-07-27T11:47:47.773Z,37.85
2018-07-27T11:48:47.785Z,38.24
2018-07-27T11:49:47.788Z,38.34
2018-07-27T11:50:47.795Z,38.14
2018-07-27T11:51:47.853Z,38.73
2018-07-27T11:52:47.818Z,38.90
2018-07-27T11:53:47.816Z,38.81
2018-07-27T11:54:47.825Z,39.02
2018-07-27T11:55:47.832Z,38.94
2018-07-27T11:56:47.839Z,37.67
2018-07-27T11:57:47.845Z,37.59
2018-07-27T11:58:47.859Z,37.49
2018-07-27T11:59:48.210Z,37.19
2018-07-27T12:00:48.052Z,37.10
2018-07-27T12:01:47.876Z,37.18
2018-07-27T12:02:47.883Z,37.19
2018-07-27T12:03:47.892Z,35.96
2018-07-27T12:04:47.898Z,34.98
2018-07-27T12:05:47.905Z,36.04
2018-07-27T12:06:47.915Z,35.55
2018-07-27T12:07:47.920Z,36.02
2018-07-27T12:08:47.928Z,37.08
2018-07-27T12:09:47.951Z,37.95
2018-07-27T12:10:47.944Z,37.85
2018-07-27T12:11:47.950Z,38.90
2018-07-27T12:12:47.959Z,38.81
2018-07-27T12:13:48.038Z,38.69
2018-07-27T12:14:48.089Z,38.81
2018-07-27T12:15:48.050Z,38.22
2018-07-27T12:16:47.995Z,37.83
2018-07-27T12:17:47.997Z,37.16
2018-07-27T12:18:48.005Z,37.45
2018-07-27T12:19:48.017Z,37.18
2018-07-27T12:20:48.182Z,36.49
2018-07-27T12:21:48.364Z,37.08
2018-07-27T12:22:48.036Z,37.08
2018-07-27T12:23:48.040Z,37.18
2018-07-27T12:24:48.049Z,36.80
2018-07-27T12:25:48.075Z,37.57
2018-07-27T12:26:48.074Z,37.47
2018-07-27T12:27:48.070Z,36.59
2018-07-27T12:28:48.078Z,36.40
2018-07-27T12:29:48.084Z,36.69
2018-07-27T12:30:48.092Z,36.40
2018-07-27T12:31:48.103Z,35.65
2018-07-27T12:32:48.105Z,35.35
2018-07-27T12:33:48.114Z,35.17
2018-07-27T12:34:48.120Z,34.23
2018-07-27T12:35:48.132Z,33.46
2018-07-27T12:36:48.140Z,32.90
2018-07-27T12:37:48.150Z,31.84
2018-07-27T12:38:48.202Z,30.95
2018-07-27T12:39:48.179Z,30.87
2018-07-27T12:40:48.171Z,30.87
2018-07-27T12:41:48.177Z,31.07
2018-07-27T12:42:48.187Z,31.16
2018-07-27T12:43:48.194Z,31.15
2018-07-27T12:44:48.199Z,31.35
2018-07-27T12:45:48.208Z,31.82
2018-07-27T12:46:48.216Z,32.50
2018-07-27T12:47:48.226Z,32.68
2018-07-27T12:48:48.233Z,33.05
2018-07-27T12:49:48.241Z,33.53
2018-07-27T12:50:48.257Z,33.82
2018-07-27T12:51:48.263Z,33.82
2018-07-27T12:52:48.270Z,33.72